Time;durP1;ratioP1;P1;durP2;ratioP2;P2;SDS_P1;SDS_P2;PMS_P1;PMS_P2;Temp;Humidity;BMP_temperature;BMP_pressure;BME280_temperature;BME280_humidity;BME280_pressure;Samples;Min_cycle;Max_cycle;Signal;HPM_P1;HPM_P2
2023/10/21 00:03:02;;;;;;;;;9.40;9.00;;;;;24.17;100.00;96525.53;6236708;28;96427;-64
2023/10/21 00:06:05;;;;;;;;;9.00;8.00;;;;;24.28;100.00;96528.47;6237949;27;96342;-64
2023/10/21 00:09:09;;;;;;;;;9.60;7.40;;;;;24.36;100.00;96539.22;6237859;27;96658;-64
2023/10/21 00:12:12;;;;;;;;;9.33;9.00;;;;;24.40;100.00;96542.03;6237487;28;96706;-64
2023/10/21 00:15:16;;;;;;;;;8.80;7.80;;;;;24.41;100.00;96540.88;6219703;28;96885;-63
2023/10/21 00:18:20;;;;;;;;;10.50;9.50;;;;;24.52;100.00;96550.91;6237225;27;96340;-64
2023/10/21 00:21:23;;;;;;;;;8.40;7.60;;;;;24.51;100.00;96548.53;6234331;28;96730;-64
2023/10/21 00:24:26;;;;;;;;;9.60;8.60;;;;;24.49;100.00;96543.38;6237760;28;96372;-67
2023/10/21 00:27:29;;;;;;;;;9.60;8.00;;;;;24.52;100.00;96525.31;6233576;28;96891;-67
2023/10/21 00:30:34;;;;;;;;;10.00;8.00;;;;;24.61;100.00;96534.13;6236548;28;96314;-66
2023/10/21 00:33:37;;;;;;;;;8.40;7.00;;;;;24.65;100.00;96521.19;6235341;28;96725;-66
2023/10/21 00:36:40;;;;;;;;;9.00;8.00;;;;;24.71;100.00;96528.00;6237008;27;97034;-67
2023/10/21 00:39:43;;;;;;;;;11.00;9.00;;;;;24.73;100.00;96536.66;6236965;27;96537;-66
2023/10/21 00:42:46;;;;;;;;;8.00;8.00;;;;;24.71;100.00;96536.25;6236401;27;97530;-65
2023/10/21 00:45:51;;;;;;;;;7.00;6.00;;;;;24.54;100.00;96510.00;6237211;28;96625;-67
2023/10/21 00:48:54;;;;;;;;;7.00;5.25;;;;;24.60;100.00;96536.09;6234506;28;96873;-67
2023/10/21 00:51:58;;;;;;;;;8.60;7.00;;;;;24.48;100.00;96533.50;6235901;28;96306;-67
2023/10/21 00:55:03;;;;;;;;;8.60;8.00;;;;;24.39;100.00;96541.22;6236906;28;96417;-66
2023/10/21 00:58:06;;;;;;;;;9.00;8.00;;;;;24.38;100.00;96547.94;6235419;28;96984;-67
2023/10/21 01:01:13;;;;;;;;;7.00;6.00;;;;;24.28;100.00;96540.28;6255131;22;97702;-70
2023/10/21 01:04:16;;;;;;;;;7.60;7.00;;;;;24.38;100.00;96569.16;6234225;27;96941;-72
2023/10/21 01:07:20;;;;;;;;;12.00;10.50;;;;;24.25;100.00;96575.97;6232841;28;96906;-72
2023/10/21 01:10:23;;;;;;;;;7.00;6.00;;;;;24.12;100.00;96575.34;6232296;28;96627;-72
2023/10/21 01:13:26;;;;;;;;;10.40;10.00;;;;;23.94;100.00;96590.72;6235767;28;96369;-72
2023/10/21 01:16:31;;;;;;;;;12.00;10.00;;;;;23.81;100.00;96592.81;6232979;28;96937;-72
2023/10/21 01:19:34;;;;;;;;;7.80;6.80;;;;;23.70;100.00;96594.59;6235317;28;96927;-72
2023/10/21 01:22:37;;;;;;;;;9.40;8.40;;;;;23.60;100.00;96604.19;6233926;28;96656;-72
2023/10/21 01:25:42;;;;;;;;;8.20;7.00;;;;;23.51;100.00;96605.56;6234566;27;96571;-71
2023/10/21 01:28:45;;;;;;;;;9.00;8.00;;;;;23.37;100.00;96599.72;6233293;28;96955;-72
2023/10/21 01:31:48;;;;;;;;;9.60;8.00;;;;;23.23;100.00;96606.50;6230630;27;96660;-71
2023/10/21 01:34:51;;;;;;;;;9.00;8.00;;;;;23.11;100.00;96592.91;6228523;27;97006;-71
2023/10/21 01:37:54;;;;;;;;;8.00;7.00;;;;;22.99;100.00;96587.50;6211949;28;96735;-71
2023/10/21 01:40:59;;;;;;;;;8.20;7.00;;;;;22.92;100.00;96586.56;6215414;28;96983;-72
2023/10/21 01:44:02;;;;;;;;;8.00;7.40;;;;;22.89;100.00;96590.81;6233918;28;96828;-72
2023/10/21 01:47:06;;;;;;;;;9.00;8.00;;;;;22.92;100.00;96597.53;6215226;28;96831;-72
2023/10/21 01:50:11;;;;;;;;;5.40;5.40;;;;;22.85;100.00;96576.19;6213856;28;98484;-72
2023/10/21 01:53:15;;;;;;;;;7.80;6.80;;;;;22.86;100.00;96577.78;6214428;28;97943;-71
2023/10/21 01:56:19;;;;;;;;;10.00;8.60;;;;;22.91;100.00;96588.50;6196760;28;96931;-72
2023/10/21 01:59:23;;;;;;;;;6.80;6.00;;;;;22.95;100.00;96583.88;6226027;28;96366;-72
2023/10/21 02:02:26;;;;;;;;;9.80;7.80;;;;;23.06;100.00;96579.44;6224075;28;96488;-72
2023/10/21 02:05:29;;;;;;;;;9.00;9.00;;;;;23.19;100.00;96569.91;6213965;28;96709;-72
2023/10/21 02:08:33;;;;;;;;;8.00;7.00;;;;;23.25;100.00;96575.91;6220185;28;96661;-72
2023/10/21 02:11:37;;;;;;;;;6.00;6.00;;;;;23.27;100.00;96582.63;6239022;28;96524;-72
2023/10/21 02:14:41;;;;;;;;;8.00;7.00;;;;;23.39;100.00;96591.91;6222031;28;97753;-66
2023/10/21 02:17:44;;;;;;;;;7.75;6.00;;;;;23.40;100.00;96599.03;6238728;28;96916;-66
2023/10/21 02:20:48;;;;;;;;;9.00;8.40;;;;;23.42;100.00;96607.69;6236584;28;96641;-65
2023/10/21 02:23:52;;;;;;;;;6.00;6.00;;;;;23.38;100.00;96609.56;6230262;28;97176;-65
2023/10/21 02:26:56;;;;;;;;;6.40;6.40;;;;;23.52;100.00;96605.19;6217179;28;96842;-65
2023/10/21 02:29:59;;;;;;;;;8.00;8.00;;;;;23.57;100.00;96615.91;6215142;28;96380;-65
2023/10/21 02:33:03;;;;;;;;;7.75;7.75;;;;;23.61;100.00;96629.75;6214798;28;96442;-65
2023/10/21 02:36:06;;;;;;;;;7.20;6.60;;;;;23.56;100.00;96619.03;6212888;28;97170;-64
2023/10/21 02:39:11;;;;;;;;;8.40;8.00;;;;;23.70;100.00;96636.63;6224734;28;97031;-66
2023/10/21 02:42:16;;;;;;;;;6.20;6.00;;;;;23.66;100.00;96635.75;6236240;28;96352;-65
2023/10/21 02:45:19;;;;;;;;;7.60;7.00;;;;;23.69;100.00;96637.81;6234561;27;96689;-65
2023/10/21 02:48:22;;;;;;;;;7.50;7.00;;;;;23.64;100.00;96623.53;6238289;28;96404;-66
2023/10/21 02:51:25;;;;;;;;;6.60;6.00;;;;;23.65;100.00;96625.13;6212981;28;96535;-65
2023/10/21 02:54:30;;;;;;;;;7.60;6.00;;;;;23.63;100.00;96632.94;6196209;28;96691;-66
2023/10/21 02:57:35;;;;;;;;;8.00;7.00;;;;;23.59;100.00;96643.06;6213079;28;96553;-65
2023/10/21 03:00:40;;;;;;;;;6.60;6.60;;;;;23.57;100.00;96648.13;6213434;28;96586;-64
2023/10/21 03:03:44;;;;;;;;;9.40;8.60;;;;;23.56;100.00;96661.06;6212988;28;96272;-64
2023/10/21 03:06:48;;;;;;;;;8.50;6.50;;;;;23.61;100.00;96665.50;6212492;28;97012;-65
2023/10/21 03:09:51;;;;;;;;;8.40;7.00;;;;;23.57;100.00;96662.69;6224418;28;96611;-64
2023/10/21 03:12:55;;;;;;;;;9.00;8.00;;;;;23.64;100.00;96660.09;6230072;28;96322;-65
2023/10/21 03:15:59;;;;;;;;;6.75;6.00;;;;;23.60;100.00;96674.94;6213043;28;96604;-65
2023/10/21 03:19:04;;;;;;;;;6.60;6.00;;;;;23.62;100.00;96678.09;6218867;28;96941;-65
2023/10/21 03:22:07;;;;;;;;;5.00;5.00;;;;;23.70;100.00;96688.13;6237427;28;96530;-65
2023/10/21 03:25:11;;;;;;;;;5.60;5.00;;;;;23.74;100.00;96683.47;6232378;28;96494;-68
2023/10/21 03:28:16;;;;;;;;;8.00;7.00;;;;;23.80;100.00;96686.75;6236870;28;96295;-68
2023/10/21 03:31:19;;;;;;;;;9.20;8.20;;;;;23.79;100.00;96687.91;6215362;28;96224;-68
2023/10/21 03:34:22;;;;;;;;;6.60;6.00;;;;;23.76;100.00;96670.16;6232116;28;96724;-68
2023/10/21 03:37:25;;;;;;;;;8.00;7.00;;;;;23.74;100.00;96665.03;6237037;28;96913;-68
2023/10/21 03:40:28;;;;;;;;;10.00;9.25;;;;;23.65;100.00;96663.63;6217987;28;96863;-68
2023/10/21 03:43:34;;;;;;;;;6.60;6.00;;;;;23.69;100.00;96667.25;6235783;28;98487;-68
2023/10/21 03:46:37;;;;;;;;;9.80;9.00;;;;;23.60;100.00;96680.44;6200672;28;98498;-68
2023/10/21 03:49:40;;;;;;;;;6.00;5.60;;;;;23.47;100.00;96681.69;6218444;28;96383;-67
2023/10/21 03:52:43;;;;;;;;;8.40;7.00;;;;;23.48;100.00;96656.59;6234828;28;96617;-68
2023/10/21 03:55:47;;;;;;;;;8.00;7.00;;;;;23.37;100.00;96639.00;6225136;28;98516;-68
2023/10/21 03:58:51;;;;;;;;;6.25;5.75;;;;;23.37;100.00;96638.22;6224900;28;96494;-68
2023/10/21 04:01:54;;;;;;;;;5.50;5.00;;;;;23.34;100.00;96650.75;6224054;28;96723;-68
2023/10/21 04:04:58;;;;;;;;;8.00;7.00;;;;;23.52;100.00;96662.16;6225682;28;96857;-68
2023/10/21 04:08:04;;;;;;;;;6.00;4.60;;;;;23.40;100.00;96668.56;6220610;28;96662;-68
2023/10/21 04:11:08;;;;;;;;;5.00;4.75;;;;;23.47;100.00;96665.97;6238076;28;96878;-68
2023/10/21 04:14:12;;;;;;;;;8.00;8.00;;;;;23.66;100.00;96676.22;6224136;27;96460;-68
2023/10/21 04:17:17;;;;;;;;;7.00;6.00;;;;;23.65;100.00;96694.66;6231045;28;96468;-68
2023/10/21 04:20:20;;;;;;;;;8.00;7.50;;;;;23.87;100.00;96700.66;6237586;28;96387;-68
2023/10/21 04:23:24;;;;;;;;;8.00;7.40;;;;;23.94;100.00;96704.34;6239123;27;96609;-68
2023/10/21 04:26:27;;;;;;;;;8.00;8.00;;;;;24.04;100.00;96703.75;6221287;28;96457;-68
2023/10/21 04:29:34;;;;;;;;;5.60;5.00;;;;;24.06;100.00;96706.97;6233680;28;96323;-68
2023/10/21 04:32:38;;;;;;;;;6.25;4.25;;;;;24.08;100.00;96707.41;6224385;28;97020;-66
2023/10/21 04:35:42;;;;;;;;;7.00;5.40;;;;;24.17;100.00;96710.75;6236533;28;96454;-72
2023/10/21 04:38:45;;;;;;;;;6.00;6.00;;;;;24.20;100.00;96728.50;6234699;28;96789;-72
2023/10/21 04:41:49;;;;;;;;;5.80;4.20;;;;;24.17;100.00;96735.53;6233961;28;96359;-72
2023/10/21 04:44:54;;;;;;;;;7.00;6.00;;;;;24.27;100.00;96736.13;6210110;28;97187;-69
2023/10/21 04:47:57;;;;;;;;;7.00;6.80;;;;;24.26;100.00;96734.53;6223417;28;97324;-72
2023/10/21 04:51:00;;;;;;;;;8.00;5.00;;;;;24.31;100.00;96736.97;6211698;28;98416;-72
2023/10/21 04:54:04;;;;;;;;;5.00;5.00;;;;;24.26;100.00;96751.84;6232022;28;96640;-71
2023/10/21 04:57:07;;;;;;;;;6.00;6.00;;;;;24.29;100.00;96755.84;6235608;28;96512;-72
2023/10/21 05:00:14;;;;;;;;;6.00;5.00;;;;;24.19;100.00;96757.19;6251712;27;96781;-71
2023/10/21 05:03:17;;;;;;;;;5.60;5.60;;;;;24.08;100.00;96739.63;6234241;28;96665;-72
2023/10/21 05:06:21;;;;;;;;;4.00;4.00;;;;;24.29;100.00;96767.63;6236007;27;96888;-72
2023/10/21 05:09:24;;;;;;;;;7.50;5.75;;;;;24.30;100.00;96783.00;6238693;28;96653;-72
2023/10/21 05:12:28;;;;;;;;;5.60;4.60;;;;;24.36;100.00;96800.03;6234605;27;96680;-72
2023/10/21 05:15:32;;;;;;;;;5.40;5.00;;;;;24.29;100.00;96811.69;6220271;28;97085;-72
2023/10/21 05:18:35;;;;;;;;;6.00;6.00;;;;;24.36;100.00;96817.34;6228732;28;96628;-72
2023/10/21 05:21:38;;;;;;;;;5.00;5.00;;;;;24.42;100.00;96826.13;6240029;28;96493;-73
2023/10/21 05:24:42;;;;;;;;;7.00;7.00;;;;;24.42;100.00;96837.16;6234642;28;96606;-72
2023/10/21 05:27:45;;;;;;;;;5.00;5.00;;;;;24.37;100.00;96842.94;6214103;28;96689;-72
2023/10/21 05:30:50;;;;;;;;;4.00;3.50;;;;;24.33;100.00;96855.84;6216031;28;97741;-72
2023/10/21 05:33:57;;;;;;;;;6.00;5.60;;;;;24.25;100.00;96859.56;6218360;28;98348;-72
2023/10/21 05:37:00;;;;;;;;;7.00;6.00;;;;;24.15;100.00;96858.16;6222337;28;96637;-72
2023/10/21 05:40:05;;;;;;;;;8.40;7.00;;;;;24.08;100.00;96866.25;6237455;27;96530;-72
2023/10/21 05:43:08;;;;;;;;;5.80;5.20;;;;;23.89;100.00;96863.44;6217635;28;96673;-72
2023/10/21 05:46:13;;;;;;;;;8.00;6.00;;;;;23.87;100.00;96879.50;6227218;28;96481;-68
2023/10/21 05:49:17;;;;;;;;;7.00;5.00;;;;;23.71;100.00;96894.06;6226297;28;96720;-68
2023/10/21 05:52:20;;;;;;;;;6.00;6.00;;;;;23.63;100.00;96891.50;6210077;28;96658;-68
2023/10/21 05:55:23;;;;;;;;;6.60;6.60;;;;;23.53;100.00;96890.06;6226467;28;96672;-68
2023/10/21 05:58:26;;;;;;;;;8.00;7.50;;;;;23.47;100.00;96916.22;6210545;28;96763;-68
2023/10/21 06:01:37;;;;;;;;;6.20;6.00;;;;;23.42;100.00;96902.72;6226161;28;97428;-67
2023/10/21 06:04:40;;;;;;;;;8.60;6.60;;;;;23.38;100.00;96915.56;6225422;28;97018;-68
2023/10/21 06:07:43;;;;;;;;;6.00;5.00;;;;;23.35;100.00;96923.72;6229555;28;96725;-68
2023/10/21 06:10:46;;;;;;;;;6.80;5.60;;;;;23.27;100.00;96903.47;6226883;28;96264;-68
2023/10/21 06:13:50;;;;;;;;;7.00;6.00;;;;;23.26;100.00;96921.91;6211105;28;97480;-68
2023/10/21 06:16:54;;;;;;;;;9.00;8.00;;;;;23.25;100.00;96936.84;6226493;28;96697;-67
2023/10/21 06:19:58;;;;;;;;;4.00;3.75;;;;;23.32;100.00;96933.47;6220695;28;98627;-68
2023/10/21 06:23:01;;;;;;;;;7.00;5.60;;;;;23.43;100.00;96950.25;6223632;28;96972;-68
2023/10/21 06:26:10;;;;;;;;;8.00;6.00;;;;;23.44;100.00;96952.66;6198305;28;96740;-68
2023/10/21 06:29:13;;;;;;;;;5.20;5.00;;;;;23.49;100.00;96955.19;6216186;28;96587;-68
2023/10/21 06:32:18;;;;;;;;;7.75;6.00;;;;;23.47;100.00;96956.69;6222401;28;97153;-68
2023/10/21 06:35:22;;;;;;;;;6.80;5.00;;;;;23.44;100.00;96963.66;6213710;28;97043;-68
2023/10/21 06:38:25;;;;;;;;;6.25;6.00;;;;;23.40;100.00;96972.97;6238309;28;98897;-68
2023/10/21 06:41:28;;;;;;;;;6.00;5.20;;;;;23.37;100.00;96965.41;6237854;28;96272;-68
2023/10/21 06:44:31;;;;;;;;;5.00;5.00;;;;;23.41;100.00;96961.59;6216573;28;96918;-68
2023/10/21 06:47:35;;;;;;;;;6.00;6.00;;;;;23.44;100.00;96968.38;6237318;28;96557;-68
2023/10/21 06:50:38;;;;;;;;;4.60;4.20;;;;;23.56;100.00;96971.88;6238003;28;96853;-68
2023/10/21 06:53:42;;;;;;;;;6.80;5.20;;;;;23.64;100.00;96970.91;6223403;27;96468;-65
2023/10/21 06:56:46;;;;;;;;;7.00;6.00;;;;;23.66;100.00;96982.34;6213471;28;96438;-65
2023/10/21 06:59:49;;;;;;;;;9.40;8.00;;;;;23.63;100.00;96988.56;6212785;28;96984;-65
2023/10/21 07:02:54;;;;;;;;;7.00;6.20;;;;;23.59;100.00;96992.38;6214299;28;96292;-65
2023/10/21 07:05:57;;;;;;;;;7.00;7.00;;;;;23.40;100.00;96982.03;6234251;28;96964;-65
2023/10/21 07:09:01;;;;;;;;;7.00;6.20;;;;;23.43;100.00;97006.06;6236091;28;97722;-65
2023/10/21 07:12:05;;;;;;;;;9.80;7.40;;;;;23.42;100.00;97000.91;6211590;28;98449;-66
2023/10/21 07:15:09;;;;;;;;;10.00;9.00;;;;;23.42;100.00;97014.66;6226911;28;97203;-66
2023/10/21 07:18:14;;;;;;;;;8.60;7.00;;;;;23.46;100.00;97021.88;6196326;28;99315;-65
2023/10/21 07:21:18;;;;;;;;;7.00;6.50;;;;;23.54;100.00;97007.19;6211767;28;96585;-65
2023/10/21 07:24:21;;;;;;;;;10.40;9.40;;;;;23.64;100.00;97017.69;6222672;28;96647;-65
2023/10/21 07:27:25;;;;;;;;;10.00;9.00;;;;;23.74;100.00;97019.94;6221073;28;96851;-66
2023/10/21 07:30:28;;;;;;;;;6.00;5.00;;;;;23.87;100.00;97028.09;6228280;27;96385;-65
2023/10/21 07:33:32;;;;;;;;;6.00;4.20;;;;;24.01;100.00;97032.03;6218673;28;98744;-65
2023/10/21 07:36:36;;;;;;;;;6.00;5.00;;;;;24.08;100.00;97037.72;6216170;28;96916;-68
2023/10/21 07:39:39;;;;;;;;;8.40;6.40;;;;;24.21;100.00;97043.97;6234788;28;96580;-65
2023/10/21 07:42:42;;;;;;;;;6.00;5.00;;;;;24.32;100.00;97056.06;6234024;28;97196;-67
2023/10/21 07:45:46;;;;;;;;;8.00;7.00;;;;;24.36;100.00;97058.91;6235178;28;96408;-65
2023/10/21 07:48:51;;;;;;;;;9.40;7.00;;;;;24.35;100.00;97060.03;6236252;28;96331;-65
2023/10/21 07:51:54;;;;;;;;;9.00;8.00;;;;;24.37;100.00;97075.06;6232446;28;96881;-65
2023/10/21 07:54:57;;;;;;;;;7.40;7.00;;;;;24.40;100.00;97079.88;6241309;27;97010;-65
2023/10/21 07:58:01;;;;;;;;;5.40;5.00;;;;;24.39;100.00;97091.22;6230449;28;96299;-66
2023/10/21 08:01:04;;;;;;;;;6.50;6.00;;;;;24.41;100.00;97095.25;6235636;28;97876;-66
2023/10/21 08:04:08;;;;;;;;;9.00;7.00;;;;;24.48;100.00;97097.38;6236941;28;96350;-72
2023/10/21 08:07:12;;;;;;;;;10.00;9.50;;;;;24.55;100.00;97111.31;6218924;28;96440;-72
2023/10/21 08:10:15;;;;;;;;;13.40;12.00;;;;;24.56;100.00;97115.69;6218499;28;97406;-69
2023/10/21 08:13:18;;;;;;;;;7.00;6.00;;;;;24.55;100.00;97120.38;6215703;28;97501;-72
2023/10/21 08:16:22;;;;;;;;;7.75;7.00;;;;;24.58;100.00;97127.16;6228142;28;97257;-72
2023/10/21 08:19:27;;;;;;;;;11.00;8.80;;;;;24.62;100.00;97128.03;6228115;28;97008;-71
2023/10/21 08:22:30;;;;;;;;;7.00;7.00;;;;;24.63;100.00;97135.13;6208185;28;98450;-72
2023/10/21 08:25:34;;;;;;;;;9.00;8.00;;;;;24.60;100.00;97141.38;6218630;28;96658;-71
2023/10/21 08:28:37;;;;;;;;;6.00;5.50;;;;;24.68;100.00;97147.88;6226762;28;97649;-71
2023/10/21 08:31:41;;;;;;;;;6.00;6.00;;;;;24.71;100.00;97150.69;6208643;28;96568;-71
2023/10/21 08:34:45;;;;;;;;;7.20;6.20;;;;;24.76;100.00;97158.72;6230338;28;96732;-72
2023/10/21 08:37:48;;;;;;;;;8.00;7.00;;;;;24.78;100.00;97170.16;6208158;28;96289;-71
2023/10/21 08:40:51;;;;;;;;;10.00;9.00;;;;;24.83;100.00;97167.13;6229694;27;97153;-72
2023/10/21 08:43:56;;;;;;;;;11.40;8.00;;;;;24.94;100.00;97172.94;6220699;28;98725;-72
2023/10/21 08:47:04;;;;;;;;;6.00;6.00;;;;;25.01;100.00;97176.69;6225845;28;97087;-72
2023/10/21 08:50:10;;;;;;;;;9.00;7.00;;;;;25.11;100.00;97182.81;6219464;28;96778;-72
2023/10/21 08:53:13;;;;;;;;;9.00;8.00;;;;;25.26;100.00;97184.75;6219501;28;96899;-72
2023/10/21 08:56:16;;;;;;;;;11.00;10.00;;;;;25.42;100.00;97182.75;6225379;28;96727;-69
2023/10/21 08:59:19;;;;;;;;;10.00;9.00;;;;;25.65;100.00;97193.94;6228724;28;97561;-72
2023/10/21 09:02:22;;;;;;;;;14.80;13.40;;;;;26.30;100.00;97192.16;6225465;28;96393;-73
2023/10/21 09:05:27;;;;;;;;;13.20;12.80;;;;;27.67;100.00;97192.94;6229903;28;97665;-73
2023/10/21 09:08:31;;;;;;;;;21.00;19.00;;;;;28.79;100.00;97194.72;6233090;28;96498;-73
2023/10/21 09:11:34;;;;;;;;;15.40;13.40;;;;;29.58;100.00;97180.31;6237030;28;96579;-73
2023/10/21 09:14:52;;;;;;;;;13.40;12.00;;;;;29.88;100.00;97199.53;6240169;28;96996;-64
2023/10/21 09:17:57;;;;;;;;;8.00;8.00;;;;;29.89;100.00;97201.16;6242355;28;96601;-65
2023/10/21 09:21:03;;;;;;;;;11.20;9.80;;;;;29.84;100.00;97210.63;6236650;27;96528;-65
2023/10/21 09:24:09;;;;;;;;;10.40;9.40;;;;;29.85;100.00;97222.53;6217469;28;96384;-65
2023/10/21 09:27:14;;;;;;;;;12.20;11.80;;;;;29.77;100.00;97220.88;6218062;28;96671;-65
2023/10/21 09:30:19;;;;;;;;;8.40;7.60;;;;;29.77;100.00;97224.47;6217106;28;96458;-65
2023/10/21 09:33:22;;;;;;;;;7.00;6.00;;;;;29.81;100.00;97216.19;6237104;27;96722;-65
2023/10/21 09:36:27;;;;;;;;;10.00;9.40;;;;;30.07;100.00;97213.94;6227077;27;96718;-64
2023/10/21 09:39:33;;;;;;;;;8.00;7.00;;;;;30.42;100.00;97224.44;6241865;28;96518;-65
2023/10/21 09:42:41;;;;;;;;;10.40;9.00;;;;;30.54;100.00;97229.66;6245033;27;96298;-68
2023/10/21 09:45:46;;;;;;;;;10.25;9.00;;;;;30.57;100.00;97249.53;6251547;27;97007;-63
2023/10/21 09:48:52;;;;;;;;;9.00;7.00;;;;;30.47;100.00;97256.66;6247684;28;98487;-65
2023/10/21 09:52:04;;;;;;;;;10.20;9.20;;;;;30.40;100.00;97257.38;6256363;28;96483;-63
2023/10/21 09:55:11;;;;;;;;;10.00;8.25;;;;;30.18;100.00;97269.59;6252500;28;96389;-63
2023/10/21 09:58:17;;;;;;;;;10.00;7.00;;;;;30.05;100.00;97265.56;6258792;28;96339;-64
2023/10/21 10:01:23;;;;;;;;;8.00;6.00;;;;;29.86;100.00;97260.25;6247640;28;96964;-63
2023/10/21 10:04:28;;;;;;;;;6.00;6.00;;;;;29.76;100.00;97252.66;6236031;28;96300;-63
2023/10/21 10:07:36;;;;;;;;;6.33;6.33;;;;;29.62;100.00;97256.09;6233070;28;96515;-63
2023/10/21 10:10:45;;;;;;;;;9.00;9.00;;;;;29.50;100.00;97267.53;6250341;28;96353;-63
2023/10/21 10:13:49;;;;;;;;;5.00;5.00;;;;;29.32;100.00;97275.72;6261367;28;96285;-63
2023/10/21 10:16:52;;;;;;;;;7.00;6.00;;;;;29.07;100.00;97272.69;6254887;28;96382;-63
2023/10/21 10:19:56;;;;;;;;;5.00;4.80;;;;;29.17;100.00;97280.31;6247797;28;96313;-63
2023/10/21 10:23:03;;;;;;;;;9.00;8.75;;;;;29.49;100.00;97302.81;6245059;28;96867;-63
2023/10/21 10:26:09;;;;;;;;;9.00;7.00;;;;;29.82;100.00;97285.22;6227667;28;97043;-65
2023/10/21 10:29:19;;;;;;;;;8.60;7.20;;;;;30.04;100.00;97283.41;6221275;28;96776;-65
2023/10/21 10:32:29;;;;;;;;;7.00;5.80;;;;;30.19;100.00;97292.63;6222133;28;96379;-65
2023/10/21 10:35:37;;;;;;;;;7.80;6.00;;;;;30.42;100.00;97293.13;6226091;28;96675;-64
2023/10/21 10:38:45;;;;;;;;;5.00;4.40;;;;;30.74;100.00;97284.97;6224288;28;96577;-64
2023/10/21 10:41:49;;;;;;;;;5.80;5.20;;;;;31.28;100.00;97286.66;6224470;28;97142;-65
2023/10/21 10:44:55;;;;;;;;;7.60;6.60;;;;;31.83;100.00;97287.91;6203282;28;96776;-65
2023/10/21 10:48:03;;;;;;;;;4.00;4.00;;;;;32.41;100.00;97294.94;6205149;28;98419;-65
2023/10/21 10:51:10;;;;;;;;;6.00;6.00;;;;;33.36;99.51;97290.13;6225444;27;96719;-66
2023/10/21 10:54:18;;;;;;;;;4.00;3.00;;;;;34.61;93.08;97290.50;6222950;28;96495;-67
2023/10/21 10:57:22;;;;;;;;;3.00;3.00;;;;;35.46;87.89;97294.97;6222873;28;96706;-66
2023/10/21 11:00:25;;;;;;;;;7.00;5.00;;;;;36.47;87.27;97297.22;6227476;27;97016;-64
2023/10/21 11:03:31;;;;;;;;;5.00;5.00;;;;;37.21;82.26;97306.13;6224488;28;97340;-65
2023/10/21 11:06:36;;;;;;;;;4.00;2.60;;;;;37.58;79.18;97290.78;6226665;28;96354;-65
2023/10/21 11:09:41;;;;;;;;;3.00;3.00;;;;;37.60;76.18;97299.59;6223087;28;96697;-64
2023/10/21 11:12:44;;;;;;;;;3.80;3.00;;;;;37.33;76.96;97304.66;6233087;28;97100;-64
2023/10/21 11:15:51;;;;;;;;;3.60;3.60;;;;;36.62;73.87;97296.94;6218850;28;98607;-64
2023/10/21 11:18:55;;;;;;;;;1.00;1.00;;;;;36.31;78.06;97310.38;6213277;28;96429;-63
2023/10/21 11:21:58;;;;;;;;;3.40;3.40;;;;;36.40;79.92;97305.78;6213136;28;96481;-63
2023/10/21 11:25:03;;;;;;;;;3.00;3.00;;;;;37.00;77.53;97317.78;6225853;28;96222;-64
2023/10/21 11:28:07;;;;;;;;;7.50;7.00;;;;;37.40;74.72;97331.78;6217131;28;96208;-65
2023/10/21 11:31:10;;;;;;;;;6.00;5.80;;;;;37.76;72.40;97340.19;6216737;28;97012;-65
2023/10/21 11:34:15;;;;;;;;;6.00;5.00;;;;;38.09;70.36;97333.34;6237978;28;96893;-65
2023/10/21 11:37:19;;;;;;;;;8.20;8.00;;;;;38.43;69.01;97338.47;6226488;27;96449;-64
2023/10/21 11:40:24;;;;;;;;;9.40;7.60;;;;;38.85;67.38;97353.44;6218613;28;96316;-65
2023/10/21 11:43:28;;;;;;;;;5.00;4.00;;;;;38.39;66.14;97346.22;6222030;28;98527;-65
2023/10/21 11:46:31;;;;;;;;;5.00;5.00;;;;;37.51;70.64;97358.44;6242009;28;96356;-65
2023/10/21 11:49:39;;;;;;;;;4.00;4.00;;;;;36.47;73.78;97360.97;6243084;28;96476;-67
2023/10/21 11:52:44;;;;;;;;;5.00;3.80;;;;;35.57;77.33;97354.47;6242068;27;96396;-64
2023/10/21 12:13:21;;;;;;;;;3.00;3.00;;;;;31.19;97.30;97361.44;6199337;28;98377;-66
2023/10/21 12:16:34;;;;;;;;;5.00;4.00;;;;;30.78;98.46;97358.91;6221101;28;96739;-66
2023/10/21 12:20:00;;;;;;;;;6.00;5.40;;;;;30.64;100.00;97358.03;6239003;28;96951;-66
2023/10/21 12:23:36;;;;;;;;;3.67;3.67;;;;;30.84;100.00;97350.94;6233029;28;96609;-66
2023/10/21 12:26:51;;;;;;;;;3.25;3.25;;;;;30.70;100.00;97362.81;6240623;28;97729;-65
2023/10/21 12:33:41;;;;;;;;;6.00;5.00;;;;;31.19;100.00;97378.94;6212737;28;97465;-66
2023/10/21 12:37:07;;;;;;;;;4.00;4.00;;;;;31.59;98.53;97393.78;6250511;27;96457;-67
2023/10/21 12:43:34;;;;;;;;;3.00;2.00;;;;;31.90;97.31;97411.72;6231661;28;96947;-67
2023/10/21 12:46:40;;;;;;;;;4.50;4.00;;;;;32.18;94.58;97420.09;6238837;27;96417;-67
2023/10/21 12:49:43;;;;;;;;;4.00;4.00;;;;;32.48;93.80;97433.63;6241378;28;96468;-66
2023/10/21 12:52:47;;;;;;;;;3.60;2.60;;;;;32.72;94.39;97432.81;6235714;28;96875;-67
2023/10/21 12:55:50;;;;;;;;;4.00;4.00;;;;;32.93;90.69;97429.16;6241147;27;96289;-67
2023/10/21 12:58:53;;;;;;;;;3.50;3.00;;;;;33.02;90.62;97437.91;6240884;28;96256;-67
2023/10/21 13:01:58;;;;;;;;;3.60;3.00;;;;;32.82;90.14;97447.94;6240441;28;96672;-67
2023/10/21 13:05:01;;;;;;;;;5.00;4.00;;;;;32.79;90.89;97443.97;6235133;28;96775;-67
2023/10/21 13:08:09;;;;;;;;;4.00;3.00;;;;;32.51;92.87;97444.75;6227552;28;97584;-67
2023/10/21 13:11:14;;;;;;;;;4.40;4.00;;;;;32.44;91.62;97439.22;6231826;28;96252;-67
2023/10/21 13:14:18;;;;;;;;;2.50;2.00;;;;;32.51;92.49;97447.56;6241022;28;96678;-67
2023/10/21 13:17:23;;;;;;;;;2.25;2.25;;;;;32.49;92.24;97460.31;6243286;28;96911;-67
2023/10/21 13:20:26;;;;;;;;;2.00;1.75;;;;;32.31;92.64;97456.72;6261556;27;96343;-67
2023/10/21 13:23:29;;;;;;;;;3.40;2.00;;;;;32.03;93.55;97463.88;6240481;28;96360;-66
2023/10/21 13:26:32;;;;;;;;;5.80;4.80;;;;;32.06;94.55;97476.25;6239695;27;96472;-67
2023/10/21 13:29:36;;;;;;;;;4.20;3.80;;;;;32.08;94.98;97476.63;6228823;28;98590;-66
2023/10/21 13:32:40;;;;;;;;;3.40;3.00;;;;;32.09;94.82;97481.00;6237727;28;96908;-67
2023/10/21 13:35:43;;;;;;;;;3.80;3.40;;;;;32.06;94.80;97485.38;6238226;27;96564;-66
2023/10/21 13:38:47;;;;;;;;;3.40;3.00;;;;;32.00;94.39;97484.19;6233460;28;97053;-67
2023/10/21 13:41:50;;;;;;;;;5.50;3.50;;;;;31.81;95.12;97481.78;6238551;28;97722;-67
2023/10/21 13:44:53;;;;;;;;;2.60;2.60;;;;;31.65;96.29;97484.13;6230448;27;96272;-66
2023/10/21 13:47:59;;;;;;;;;3.00;3.00;;;;;31.39;97.40;97488.78;6234293;28;97011;-67
2023/10/21 13:51:08;;;;;;;;;2.00;2.00;;;;;31.26;97.98;97483.97;6212257;28;96739;-67
2023/10/21 13:54:13;;;;;;;;;3.00;2.00;;;;;31.21;97.65;97487.13;6229477;28;96424;-66
2023/10/21 13:57:17;;;;;;;;;3.00;3.00;;;;;31.17;97.76;97495.47;6232406;28;96508;-65
2023/10/21 14:00:37;;;;;;;;;2.40;1.80;;;;;31.00;98.90;97493.34;6227112;28;96211;-65
2023/10/21 14:03:42;;;;;;;;;5.00;4.80;;;;;30.68;100.00;97484.03;6228925;27;96838;-65
2023/10/21 14:06:46;;;;;;;;;4.00;3.00;;;;;30.42;100.00;97496.13;6224874;28;96522;-65
2023/10/21 14:09:50;;;;;;;;;3.00;2.00;;;;;30.25;100.00;97507.91;6217972;28;96693;-64
2023/10/21 14:12:53;;;;;;;;;5.75;5.00;;;;;30.07;100.00;97514.09;6237958;27;97794;-65
2023/10/21 14:15:59;;;;;;;;;5.00;4.00;;;;;29.78;100.00;97512.19;6229257;28;96635;-64
2023/10/21 14:19:08;;;;;;;;;4.00;3.75;;;;;29.44;100.00;97502.28;6228341;28;96398;-64
2023/10/21 14:22:11;;;;;;;;;4.00;4.00;;;;;29.12;100.00;97508.22;6232640;28;97243;-64
2023/10/21 14:25:14;;;;;;;;;3.00;3.00;;;;;28.81;100.00;97527.97;6241611;27;97166;-64
2023/10/21 14:28:18;;;;;;;;;4.00;4.00;;;;;28.46;100.00;97519.88;6240670;27;96967;-64
2023/10/21 14:31:28;;;;;;;;;4.00;3.40;;;;;28.16;100.00;97516.22;6233040;28;96414;-65
2023/10/21 14:34:33;;;;;;;;;4.00;4.00;;;;;27.83;100.00;97505.72;6222958;28;96967;-64
2023/10/21 14:37:36;;;;;;;;;3.00;3.00;;;;;27.63;100.00;97515.22;6238456;27;96754;-64
2023/10/21 14:40:40;;;;;;;;;4.20;4.20;;;;;27.41;100.00;97512.03;6235875;27;96362;-64
2023/10/21 14:43:43;;;;;;;;;6.00;6.00;;;;;27.22;100.00;97519.50;6235598;28;96766;-63